Florida, Indiana
Current Conditions -  °F | °C
As of 12:53 AM on Thursday 23 Oct 2014 (Local Time) from KHUF Reporting Station
Clear Clear  
Wind Chill: 38°   Ceiling: Unl
Heat Index: 38°   Visibility: 10mi
Dew Point: 37°   Wind: 0mph
Humidity: 97%   Direction: NA
Pressure: 30.26"   Gusts: NA
Location:  39.6386°N, 87.3045°W
Report Text: KHUF 230453Z 00000KT 10SM CLR 03/03 A3026 RMK AO2 SLP250 T00330028 401560011
Loading
Personal Weather Stations






























Interactive Weather Map New forecast layout! Learn more

10-Day Weather Forecast

Advertisements
Track Severe Weather on mobile